GLO3000 SBRF-SBJU
Flight info
| Callsign | GLO3000 |
|---|---|
| Flight time | 0h 52m |
| Altitude | 27000 |
| Route | IROSI DCT UDERU |
| Aircraft | B738/M-SDE2E3FGHIRWXY/LB1 |
Departure
| Time | 2026-04-14 21:12 |
|---|---|
| Airport | Recife/Guararapes - Gilberto Freyre International Airport (SBRF) |
Arrival
| Time | 2026-04-14 22:05 |
|---|---|
| Airport | Orlando Bezerra de Menezes Airport (SBJU) |
| Time | Latitude | Longitude | Altitude | Speed | Heading |
|---|---|---|---|---|---|
| 2026-04-14 21:02 | -8.13278 | -34.91877 | 45 ft | 0 kts | 71° |
| 2026-04-14 21:04 | -8.13279 | -34.91881 | 45 ft | 2 kts | 71° |
| 2026-04-14 21:04 | -8.13284 | -34.91895 | 45 ft | 2 kts | 71° |
| 2026-04-14 21:05 | -8.13289 | -34.91909 | 45 ft | 2 kts | 71° |
| 2026-04-14 21:05 | -8.13292 | -34.91919 | 45 ft | 2 kts | 65° |
| 2026-04-14 21:05 | -8.13302 | -34.91930 | 45 ft | 2 kts | 35° |
| 2026-04-14 21:05 | -8.13316 | -34.91937 | 45 ft | 2 kts | 9° |
| 2026-04-14 21:06 | -8.13330 | -34.91937 | 45 ft | 1 kts | 346° |
| 2026-04-14 21:06 | -8.13336 | -34.91935 | 45 ft | 1 kts | 341° |
| 2026-04-14 21:06 | -8.13337 | -34.91934 | 45 ft | 0 kts | 341° |
| 2026-04-14 21:08 | -8.13337 | -34.91935 | 45 ft | 0 kts | 341° |
| 2026-04-14 21:08 | -8.13306 | -34.91945 | 45 ft | 10 kts | 342° |
| 2026-04-14 21:08 | -8.13199 | -34.91979 | 45 ft | 21 kts | 342° |
| 2026-04-14 21:08 | -8.13014 | -34.92039 | 45 ft | 33 kts | 342° |
| 2026-04-14 21:09 | -8.12798 | -34.92110 | 45 ft | 32 kts | 342° |
| 2026-04-14 21:09 | -8.12588 | -34.92179 | 45 ft | 30 kts | 341° |
| 2026-04-14 21:09 | -8.12392 | -34.92243 | 45 ft | 29 kts | 342° |
| 2026-04-14 21:09 | -8.12201 | -34.92304 | 45 ft | 27 kts | 341° |
| 2026-04-14 21:10 | -8.12026 | -34.92364 | 45 ft | 26 kts | 342° |
| 2026-04-14 21:10 | -8.11855 | -34.92421 | 45 ft | 24 kts | 342° |
| 2026-04-14 21:10 | -8.11691 | -34.92474 | 43 ft | 24 kts | 342° |
| 2026-04-14 21:10 | -8.11577 | -34.92532 | 41 ft | 2 kts | 321° |
| 2026-04-14 21:11 | -8.11572 | -34.92536 | 41 ft | 1 kts | 321° |
| 2026-04-14 21:11 | -8.11557 | -34.92549 | 41 ft | 3 kts | 319° |
| 2026-04-14 21:11 | -8.11519 | -34.92583 | 40 ft | 12 kts | 319° |
| 2026-04-14 21:11 | -8.11452 | -34.92672 | 38 ft | 20 kts | 248° |
| 2026-04-14 21:12 | -8.11632 | -34.92645 | 42 ft | 49 kts | 161° |
| 2026-04-14 21:12 | -8.12182 | -34.92465 | 46 ft | 114 kts | 161° |
| 2026-04-14 21:12 | -8.13124 | -34.92151 | 53 ft | 166 kts | 159° |
| 2026-04-14 21:12 | -8.14173 | -34.91806 | 712 ft | 162 kts | 161° |
| 2026-04-14 21:13 | -8.15323 | -34.91509 | 1266 ft | 172 kts | 165° |
| 2026-04-14 21:13 | -8.16509 | -34.91322 | 1787 ft | 180 kts | 172° |
| 2026-04-14 21:13 | -8.17836 | -34.91449 | 2074 ft | 203 kts | 195° |
| 2026-04-14 21:14 | -8.19538 | -34.93974 | 2652 ft | 255 kts | 259° |
| 2026-04-14 21:14 | -8.19852 | -34.95776 | 3142 ft | 268 kts | 255° |
| 2026-04-14 21:14 | -8.20355 | -34.97615 | 3682 ft | 278 kts | 250° |
| 2026-04-14 21:14 | -8.20989 | -34.99475 | 4371 ft | 283 kts | 249° |
| 2026-04-14 21:15 | -8.21664 | -35.01347 | 5116 ft | 285 kts | 248° |
| 2026-04-14 21:15 | -8.22318 | -35.03168 | 5647 ft | 289 kts | 249° |
| 2026-04-14 21:15 | -8.22994 | -35.05078 | 5855 ft | 290 kts | 249° |
| 2026-04-14 21:15 | -8.23660 | -35.06984 | 5879 ft | 288 kts | 249° |
| 2026-04-14 21:16 | -8.24331 | -35.08919 | 6094 ft | 298 kts | 250° |
| 2026-04-14 21:16 | -8.24848 | -35.10920 | 7025 ft | 293 kts | 261° |
| 2026-04-14 21:16 | -8.24775 | -35.12999 | 7763 ft | 296 kts | 285° |
| 2026-04-14 21:16 | -8.23901 | -35.14857 | 8462 ft | 297 kts | 307° |
| 2026-04-14 21:17 | -8.22494 | -35.16397 | 9190 ft | 298 kts | 320° |
| 2026-04-14 21:17 | -8.20741 | -35.17552 | 9871 ft | 301 kts | 339° |
| 2026-04-14 21:17 | -8.18716 | -35.18152 | 10435 ft | 309 kts | 348° |
| 2026-04-14 21:17 | -8.16516 | -35.18606 | 10831 ft | 325 kts | 349° |
| 2026-04-14 21:18 | -8.14224 | -35.19066 | 11214 ft | 341 kts | 349° |
| 2026-04-14 21:18 | -8.11829 | -35.19577 | 11573 ft | 356 kts | 348° |
| 2026-04-14 21:18 | -8.09376 | -35.20129 | 12085 ft | 365 kts | 348° |
| 2026-04-14 21:18 | -8.06837 | -35.20718 | 12836 ft | 367 kts | 347° |
| 2026-04-14 21:19 | -8.04334 | -35.21305 | 13487 ft | 371 kts | 347° |
| 2026-04-14 21:19 | -8.01803 | -35.21901 | 14141 ft | 375 kts | 347° |
| 2026-04-14 21:19 | -7.99260 | -35.22499 | 14815 ft | 378 kts | 347° |
| 2026-04-14 21:19 | -7.96665 | -35.23108 | 15432 ft | 383 kts | 347° |
| 2026-04-14 21:20 | -7.94061 | -35.23718 | 16063 ft | 387 kts | 347° |
| 2026-04-14 21:20 | -7.91382 | -35.24345 | 16665 ft | 391 kts | 347° |
| 2026-04-14 21:20 | -7.88732 | -35.24964 | 17282 ft | 394 kts | 347° |
| 2026-04-14 21:20 | -7.86041 | -35.25593 | 17867 ft | 398 kts | 347° |
| 2026-04-14 21:21 | -7.83302 | -35.26233 | 18423 ft | 402 kts | 346° |
| 2026-04-14 21:21 | -7.80560 | -35.26873 | 18970 ft | 406 kts | 346° |
| 2026-04-14 21:21 | -7.77788 | -35.27520 | 19532 ft | 409 kts | 346° |
| 2026-04-14 21:21 | -7.74995 | -35.28167 | 20133 ft | 410 kts | 347° |
| 2026-04-14 21:22 | -7.72195 | -35.28815 | 20699 ft | 412 kts | 346° |
| 2026-04-14 21:22 | -7.69392 | -35.29472 | 21191 ft | 415 kts | 346° |
| 2026-04-14 21:22 | -7.66556 | -35.30151 | 21715 ft | 416 kts | 345° |
| 2026-04-14 21:22 | -7.63790 | -35.31040 | 22087 ft | 421 kts | 338° |
| 2026-04-14 21:23 | -7.61159 | -35.32361 | 22470 ft | 424 kts | 327° |
| 2026-04-14 21:23 | -7.58755 | -35.34139 | 22891 ft | 427 kts | 318° |
| 2026-04-14 21:23 | -7.56595 | -35.36167 | 23299 ft | 429 kts | 314° |
| 2026-04-14 21:23 | -7.54492 | -35.38346 | 23724 ft | 432 kts | 312° |
| 2026-04-14 21:24 | -7.52467 | -35.40542 | 24148 ft | 434 kts | 311° |
| 2026-04-14 21:24 | -7.50406 | -35.42814 | 24581 ft | 436 kts | 311° |
| 2026-04-14 21:24 | -7.48366 | -35.45070 | 24981 ft | 438 kts | 311° |
| 2026-04-14 21:24 | -7.46322 | -35.47333 | 25427 ft | 439 kts | 310° |
| 2026-04-14 21:25 | -7.44478 | -35.49786 | 25783 ft | 441 kts | 301° |
| 2026-04-14 21:25 | -7.43056 | -35.52513 | 26237 ft | 441 kts | 293° |
| 2026-04-14 21:25 | -7.42001 | -35.55436 | 26588 ft | 443 kts | 285° |
| 2026-04-14 21:25 | -7.41347 | -35.58468 | 26886 ft | 445 kts | 279° |
| 2026-04-14 21:26 | -7.40964 | -35.61552 | 26920 ft | 448 kts | 275° |
| 2026-04-14 21:26 | -7.40722 | -35.64685 | 26924 ft | 446 kts | 273° |
| 2026-04-14 21:26 | -7.40547 | -35.67784 | 26927 ft | 445 kts | 273° |
| 2026-04-14 21:26 | -7.40391 | -35.70871 | 26931 ft | 445 kts | 273° |
| 2026-04-14 21:27 | -7.40229 | -35.74005 | 26930 ft | 445 kts | 273° |
| 2026-04-14 21:27 | -7.40057 | -35.77091 | 26933 ft | 447 kts | 273° |
| 2026-04-14 21:27 | -7.39868 | -35.80219 | 26936 ft | 446 kts | 274° |
| 2026-04-14 21:27 | -7.39669 | -35.83339 | 26937 ft | 445 kts | 274° |
| 2026-04-14 21:28 | -7.39463 | -35.86433 | 26939 ft | 444 kts | 274° |
| 2026-04-14 21:28 | -7.39251 | -35.89526 | 26942 ft | 446 kts | 274° |
| 2026-04-14 21:28 | -7.39036 | -35.92622 | 26946 ft | 444 kts | 274° |
| 2026-04-14 21:28 | -7.38817 | -35.95740 | 26950 ft | 444 kts | 274° |
| 2026-04-14 21:29 | -7.38598 | -35.98830 | 26950 ft | 445 kts | 274° |
| 2026-04-14 21:29 | -7.38379 | -36.01918 | 26952 ft | 446 kts | 274° |
| 2026-04-14 21:29 | -7.38157 | -36.05033 | 26953 ft | 445 kts | 274° |
| 2026-04-14 21:29 | -7.37936 | -36.08127 | 26953 ft | 445 kts | 274° |
| 2026-04-14 21:30 | -7.37715 | -36.11229 | 26954 ft | 444 kts | 274° |
| 2026-04-14 21:30 | -7.37493 | -36.14339 | 26955 ft | 443 kts | 274° |
| 2026-04-14 21:30 | -7.37271 | -36.17429 | 26955 ft | 444 kts | 274° |
| 2026-04-14 21:30 | -7.37051 | -36.20505 | 26956 ft | 445 kts | 274° |
| 2026-04-14 21:31 | -7.36828 | -36.23619 | 26956 ft | 445 kts | 274° |
| 2026-04-14 21:31 | -7.36606 | -36.26711 | 26955 ft | 444 kts | 274° |
| 2026-04-14 21:31 | -7.36382 | -36.29824 | 26958 ft | 444 kts | 274° |
| 2026-04-14 21:31 | -7.36161 | -36.32895 | 26959 ft | 443 kts | 274° |
| 2026-04-14 21:32 | -7.35937 | -36.36008 | 26961 ft | 444 kts | 274° |
| 2026-04-14 21:32 | -7.35716 | -36.39081 | 26962 ft | 444 kts | 274° |
| 2026-04-14 21:32 | -7.35492 | -36.42192 | 26963 ft | 443 kts | 274° |
| 2026-04-14 21:32 | -7.35267 | -36.45299 | 26964 ft | 443 kts | 274° |
| 2026-04-14 21:33 | -7.35045 | -36.48371 | 26965 ft | 443 kts | 274° |
| 2026-04-14 21:33 | -7.34820 | -36.51479 | 26965 ft | 442 kts | 274° |
| 2026-04-14 21:33 | -7.34598 | -36.54555 | 26967 ft | 443 kts | 274° |
| 2026-04-14 21:33 | -7.34374 | -36.57647 | 26965 ft | 443 kts | 274° |
| 2026-04-14 21:34 | -7.34152 | -36.60703 | 26966 ft | 443 kts | 274° |
| 2026-04-14 21:34 | -7.33927 | -36.63808 | 26965 ft | 443 kts | 274° |
| 2026-04-14 21:34 | -7.33701 | -36.66909 | 26962 ft | 443 kts | 274° |
| 2026-04-14 21:34 | -7.33478 | -36.69983 | 26963 ft | 444 kts | 274° |
| 2026-04-14 21:35 | -7.33251 | -36.73100 | 26964 ft | 443 kts | 274° |
| 2026-04-14 21:35 | -7.33026 | -36.76191 | 26966 ft | 443 kts | 274° |
| 2026-04-14 21:35 | -7.32803 | -36.79245 | 26966 ft | 443 kts | 274° |
| 2026-04-14 21:35 | -7.32577 | -36.82339 | 26966 ft | 442 kts | 274° |
| 2026-04-14 21:36 | -7.32351 | -36.85432 | 26966 ft | 443 kts | 274° |
| 2026-04-14 21:36 | -7.32125 | -36.88526 | 26965 ft | 442 kts | 274° |
| 2026-04-14 21:36 | -7.31901 | -36.91581 | 26967 ft | 443 kts | 274° |
| 2026-04-14 21:36 | -7.31674 | -36.94681 | 26969 ft | 442 kts | 274° |
| 2026-04-14 21:37 | -7.31450 | -36.97745 | 26971 ft | 441 kts | 274° |
| 2026-04-14 21:37 | -7.31200 | -37.00836 | 26971 ft | 442 kts | 275° |
| 2026-04-14 21:37 | -7.30900 | -37.03927 | 26970 ft | 443 kts | 276° |
| 2026-04-14 21:37 | -7.30573 | -37.07014 | 26972 ft | 443 kts | 276° |
| 2026-04-14 21:38 | -7.30241 | -37.10062 | 26975 ft | 442 kts | 276° |
| 2026-04-14 21:38 | -7.29902 | -37.13150 | 26974 ft | 443 kts | 276° |
| 2026-04-14 21:38 | -7.29567 | -37.16230 | 26974 ft | 443 kts | 276° |
| 2026-04-14 21:38 | -7.29234 | -37.19313 | 26970 ft | 442 kts | 276° |
| 2026-04-14 21:39 | -7.28905 | -37.22386 | 26970 ft | 443 kts | 276° |
| 2026-04-14 21:39 | -7.28574 | -37.25496 | 26968 ft | 442 kts | 276° |
| 2026-04-14 21:39 | -7.28251 | -37.28550 | 26966 ft | 443 kts | 276° |
| 2026-04-14 21:39 | -7.27927 | -37.31623 | 26964 ft | 443 kts | 276° |
| 2026-04-14 21:40 | -7.27600 | -37.34730 | 26965 ft | 443 kts | 276° |
| 2026-04-14 21:40 | -7.27278 | -37.37789 | 26965 ft | 443 kts | 276° |
| 2026-04-14 21:40 | -7.26956 | -37.40855 | 26963 ft | 443 kts | 276° |
| 2026-04-14 21:40 | -7.26630 | -37.43955 | 26963 ft | 444 kts | 276° |
| 2026-04-14 21:41 | -7.26307 | -37.47023 | 26963 ft | 443 kts | 276° |
| 2026-04-14 21:41 | -7.25982 | -37.50115 | 26963 ft | 443 kts | 276° |
| 2026-04-14 21:41 | -7.25654 | -37.53231 | 26960 ft | 444 kts | 276° |
| 2026-04-14 21:41 | -7.25327 | -37.56329 | 26956 ft | 445 kts | 276° |
| 2026-04-14 21:42 | -7.25004 | -37.59394 | 26952 ft | 443 kts | 276° |
| 2026-04-14 21:42 | -7.24679 | -37.62480 | 26948 ft | 442 kts | 276° |
| 2026-04-14 21:42 | -7.24355 | -37.65553 | 26943 ft | 443 kts | 276° |
| 2026-04-14 21:42 | -7.24027 | -37.68658 | 26940 ft | 445 kts | 276° |
| 2026-04-14 21:43 | -7.23703 | -37.71721 | 26937 ft | 443 kts | 276° |
| 2026-04-14 21:43 | -7.23376 | -37.74815 | 26935 ft | 443 kts | 276° |
| 2026-04-14 21:43 | -7.23050 | -37.77893 | 26935 ft | 444 kts | 276° |
| 2026-04-14 21:43 | -7.22722 | -37.80997 | 26934 ft | 444 kts | 276° |
| 2026-04-14 21:44 | -7.22397 | -37.84056 | 26933 ft | 444 kts | 276° |
| 2026-04-14 21:44 | -7.22070 | -37.87143 | 26929 ft | 445 kts | 276° |
| 2026-04-14 21:44 | -7.21741 | -37.90240 | 26929 ft | 445 kts | 276° |
| 2026-04-14 21:44 | -7.21408 | -37.93369 | 26927 ft | 444 kts | 276° |
| 2026-04-14 21:45 | -7.21079 | -37.96469 | 26925 ft | 445 kts | 276° |
| 2026-04-14 21:45 | -7.20751 | -37.99552 | 26924 ft | 445 kts | 276° |
| 2026-04-14 21:45 | -7.20422 | -38.02650 | 26925 ft | 443 kts | 276° |
| 2026-04-14 21:45 | -7.20093 | -38.05740 | 26931 ft | 444 kts | 276° |
| 2026-04-14 21:46 | -7.19759 | -38.08880 | 26937 ft | 445 kts | 276° |
| 2026-04-14 21:46 | -7.19427 | -38.11998 | 26943 ft | 445 kts | 276° |
| 2026-04-14 21:46 | -7.19094 | -38.15120 | 26952 ft | 444 kts | 276° |
| 2026-04-14 21:46 | -7.18766 | -38.18194 | 26958 ft | 444 kts | 276° |
| 2026-04-14 21:47 | -7.18436 | -38.21281 | 26965 ft | 445 kts | 276° |
| 2026-04-14 21:47 | -7.18107 | -38.24357 | 26969 ft | 445 kts | 276° |
| 2026-04-14 21:47 | -7.17777 | -38.27447 | 26973 ft | 445 kts | 276° |
| 2026-04-14 21:47 | -7.17447 | -38.30530 | 26919 ft | 443 kts | 276° |
| 2026-04-14 21:48 | -7.17125 | -38.33573 | 26525 ft | 436 kts | 276° |
| 2026-04-14 21:48 | -7.16807 | -38.36585 | 26118 ft | 426 kts | 276° |
| 2026-04-14 21:48 | -7.16481 | -38.39522 | 25619 ft | 430 kts | 276° |
| 2026-04-14 21:48 | -7.16155 | -38.42563 | 24990 ft | 436 kts | 275° |
| 2026-04-14 21:49 | -7.15834 | -38.45565 | 24334 ft | 433 kts | 275° |
| 2026-04-14 21:49 | -7.15512 | -38.48568 | 23670 ft | 430 kts | 275° |
| 2026-04-14 21:49 | -7.15194 | -38.51532 | 23015 ft | 427 kts | 275° |
| 2026-04-14 21:49 | -7.14876 | -38.54490 | 22359 ft | 424 kts | 275° |
| 2026-04-14 21:50 | -7.14560 | -38.57415 | 21723 ft | 422 kts | 275° |
| 2026-04-14 21:50 | -7.14248 | -38.60318 | 21082 ft | 419 kts | 275° |
| 2026-04-14 21:50 | -7.13935 | -38.63218 | 20687 ft | 409 kts | 275° |
| 2026-04-14 21:50 | -7.13632 | -38.66031 | 20151 ft | 405 kts | 276° |
| 2026-04-14 21:51 | -7.13329 | -38.68837 | 19584 ft | 401 kts | 275° |
| 2026-04-14 21:51 | -7.13033 | -38.71592 | 18993 ft | 399 kts | 276° |
| 2026-04-14 21:51 | -7.12736 | -38.74348 | 18451 ft | 394 kts | 276° |
| 2026-04-14 21:51 | -7.12445 | -38.77054 | 17856 ft | 391 kts | 276° |
| 2026-04-14 21:52 | -7.12153 | -38.79766 | 17161 ft | 388 kts | 276° |
| 2026-04-14 21:52 | -7.11862 | -38.82456 | 16434 ft | 386 kts | 276° |
| 2026-04-14 21:52 | -7.11573 | -38.85122 | 15725 ft | 384 kts | 276° |
| 2026-04-14 21:52 | -7.11283 | -38.87788 | 15083 ft | 380 kts | 276° |
| 2026-04-14 21:53 | -7.11000 | -38.90387 | 14366 ft | 379 kts | 276° |
| 2026-04-14 21:53 | -7.10714 | -38.93013 | 13696 ft | 376 kts | 276° |
| 2026-04-14 21:53 | -7.10429 | -38.95624 | 13016 ft | 374 kts | 276° |
| 2026-04-14 21:53 | -7.10151 | -38.98191 | 12380 ft | 370 kts | 276° |
| 2026-04-14 21:54 | -7.09872 | -39.00755 | 11749 ft | 367 kts | 276° |
| 2026-04-14 21:54 | -7.09596 | -39.03304 | 11143 ft | 362 kts | 276° |
| 2026-04-14 21:54 | -7.09330 | -39.05774 | 10772 ft | 351 kts | 276° |
| 2026-04-14 21:54 | -7.09070 | -39.08184 | 10523 ft | 338 kts | 276° |
| 2026-04-14 21:55 | -7.08821 | -39.10471 | 10318 ft | 325 kts | 276° |
| 2026-04-14 21:55 | -7.08580 | -39.12686 | 10140 ft | 313 kts | 276° |
| 2026-04-14 21:55 | -7.08334 | -39.14842 | 9819 ft | 310 kts | 277° |
| 2026-04-14 21:55 | -7.08085 | -39.17010 | 9395 ft | 310 kts | 276° |
| 2026-04-14 21:56 | -7.07855 | -39.19144 | 9020 ft | 308 kts | 276° |
| 2026-04-14 21:56 | -7.07590 | -39.21299 | 8653 ft | 307 kts | 277° |
| 2026-04-14 21:56 | -7.07321 | -39.23420 | 8287 ft | 305 kts | 276° |
| 2026-04-14 21:56 | -7.07069 | -39.25524 | 7926 ft | 303 kts | 277° |
| 2026-04-14 21:57 | -7.06819 | -39.27617 | 7561 ft | 301 kts | 276° |
| 2026-04-14 21:57 | -7.06600 | -39.29700 | 7210 ft | 299 kts | 273° |
| 2026-04-14 21:57 | -7.06442 | -39.31769 | 6851 ft | 296 kts | 275° |
| 2026-04-14 21:57 | -7.06208 | -39.33798 | 6490 ft | 291 kts | 275° |
| 2026-04-14 21:58 | -7.06062 | -39.35829 | 6133 ft | 288 kts | 273° |
| 2026-04-14 21:58 | -7.05887 | -39.37819 | 5773 ft | 284 kts | 275° |
| 2026-04-14 21:58 | -7.05666 | -39.39763 | 5590 ft | 270 kts | 275° |
| 2026-04-14 21:58 | -7.05581 | -39.41561 | 5527 ft | 249 kts | 264° |
| 2026-04-14 21:59 | -7.06062 | -39.43131 | 5456 ft | 225 kts | 232° |
| 2026-04-14 21:59 | -7.07149 | -39.44168 | 5293 ft | 207 kts | 208° |
| 2026-04-14 21:59 | -7.08403 | -39.44781 | 5054 ft | 194 kts | 195° |
| 2026-04-14 21:59 | -7.09676 | -39.45040 | 4852 ft | 181 kts | 176° |
| 2026-04-14 22:00 | -7.10938 | -39.45018 | 4767 ft | 177 kts | 174° |
| 2026-04-14 22:00 | -7.12170 | -39.45003 | 4642 ft | 176 kts | 176° |
| 2026-04-14 22:00 | -7.13381 | -39.45011 | 4521 ft | 172 kts | 174° |
| 2026-04-14 22:00 | -7.14547 | -39.44782 | 4396 ft | 167 kts | 148° |
| 2026-04-14 22:01 | -7.15388 | -39.44014 | 4285 ft | 163 kts | 122° |
| 2026-04-14 22:01 | -7.15884 | -39.43028 | 4157 ft | 152 kts | 110° |
| 2026-04-14 22:01 | -7.16237 | -39.42028 | 4037 ft | 150 kts | 109° |
| 2026-04-14 22:01 | -7.16608 | -39.41047 | 3887 ft | 149 kts | 110° |
| 2026-04-14 22:02 | -7.16971 | -39.40103 | 3730 ft | 142 kts | 109° |
| 2026-04-14 22:02 | -7.17319 | -39.39169 | 3600 ft | 145 kts | 109° |
| 2026-04-14 22:02 | -7.17682 | -39.38193 | 3467 ft | 151 kts | 109° |
| 2026-04-14 22:02 | -7.18067 | -39.37179 | 3334 ft | 156 kts | 110° |
| 2026-04-14 22:03 | -7.18460 | -39.36139 | 3136 ft | 162 kts | 109° |
| 2026-04-14 22:03 | -7.18852 | -39.35099 | 2889 ft | 157 kts | 109° |
| 2026-04-14 22:03 | -7.19236 | -39.34082 | 2668 ft | 150 kts | 110° |
| 2026-04-14 22:03 | -7.19599 | -39.33114 | 2486 ft | 147 kts | 110° |
| 2026-04-14 22:04 | -7.19959 | -39.32152 | 2294 ft | 148 kts | 110° |
| 2026-04-14 22:04 | -7.20320 | -39.31189 | 2113 ft | 149 kts | 110° |
| 2026-04-14 22:04 | -7.20690 | -39.30204 | 1903 ft | 151 kts | 110° |
| 2026-04-14 22:04 | -7.21056 | -39.29202 | 1655 ft | 156 kts | 110° |
| 2026-04-14 22:05 | -7.21454 | -39.28176 | 1432 ft | 156 kts | 110° |
| 2026-04-14 22:05 | -7.21804 | -39.27230 | 1360 ft | 108 kts | 111° |
| 2026-04-14 22:05 | -7.21969 | -39.26804 | 1352 ft | 25 kts | 121° |
| 2026-04-14 22:05 | -7.21993 | -39.26768 | 1351 ft | 1 kts | 87° |
| 2026-04-14 22:06 | -7.21965 | -39.26800 | 1352 ft | 14 kts | 291° |
| 2026-04-14 22:06 | -7.21918 | -39.26936 | 1355 ft | 27 kts | 291° |
| 2026-04-14 22:06 | -7.21843 | -39.27120 | 1358 ft | 18 kts | 317° |
| 2026-04-14 22:06 | -7.21731 | -39.27176 | 1358 ft | 17 kts | 337° |
| 2026-04-14 22:07 | -7.21643 | -39.27212 | 1357 ft | 6 kts | 350° |
| 2026-04-14 22:07 | -7.21603 | -39.27204 | 1356 ft | 4 kts | 20° |
| 2026-04-14 22:07 | -7.21587 | -39.27198 | 1355 ft | 0 kts | 20° |